createdAt,value
2023-03-17T00:04:24.210Z,10.97
2023-03-17T00:14:32.154Z,6.88
2023-03-17T00:19:36.590Z,9.77
2023-03-17T00:24:41.242Z,12.93
2023-03-17T00:29:44.455Z,12.43
2023-03-17T00:34:47.878Z,8.40
2023-03-17T00:39:52.494Z,11.23
2023-03-17T00:44:55.725Z,14.40
2023-03-17T00:49:58.947Z,15.65
2023-03-17T00:55:03.684Z,20.30
2023-03-17T01:00:14.818Z,13.88
2023-03-17T01:05:18.356Z,20.42
2023-03-17T01:10:25.876Z,13.32
2023-03-17T01:15:31.673Z,11.68
2023-03-17T01:20:35.886Z,10.82
2023-03-17T01:25:42.849Z,30.40
2023-03-17T01:30:47.089Z,8.57
2023-03-17T01:35:52.137Z,9.00
2023-03-17T01:40:56.879Z,15.95
2023-03-17T01:46:29.335Z,16.42
2023-03-17T01:51:35.957Z,9.75
2023-03-17T01:56:43.376Z,10.50
2023-03-17T02:01:50.095Z,11.10
2023-03-17T02:06:58.488Z,8.98
2023-03-17T02:12:05.364Z,10.88
2023-03-17T02:17:08.865Z,6.88
2023-03-17T02:22:13.889Z,9.77
2023-03-17T02:32:22.777Z,5.68
2023-03-17T02:37:27.306Z,6.38
2023-03-17T02:42:30.746Z,3.97
2023-03-17T02:47:33.987Z,4.28
2023-03-17T02:52:38.511Z,7.05
2023-03-17T02:57:42.022Z,4.72
2023-03-17T03:02:45.167Z,2.08
2023-03-17T03:07:49.698Z,5.03
2023-03-17T03:12:52.988Z,6.60
2023-03-17T03:17:56.116Z,5.20
2023-03-17T03:23:00.702Z,5.60
2023-03-17T03:28:03.855Z,3.65
2023-03-17T03:33:07.060Z,3.22
2023-03-17T03:38:12.585Z,8.27
2023-03-17T03:43:23.380Z,5.30
2023-03-17T03:48:27.075Z,7.85
2023-03-17T03:53:32.083Z,10.98
2023-03-17T04:03:38.212Z,5.07
2023-03-17T04:08:42.757Z,8.35
2023-03-17T04:13:45.957Z,6.47
2023-03-17T04:18:49.151Z,10.48
2023-03-17T04:23:53.784Z,5.28
2023-03-17T04:28:56.941Z,5.55
2023-03-17T04:34:00.117Z,9.60
2023-03-17T04:39:04.819Z,8.20
2023-03-17T04:44:08.867Z,11.52
2023-03-17T04:49:12.155Z,7.45
2023-03-17T04:54:16.706Z,9.82
2023-03-17T04:59:19.863Z,7.28
2023-03-17T05:04:31.062Z,8.18
2023-03-17T05:09:36.474Z,7.35
2023-03-17T05:14:39.782Z,6.78
2023-03-17T05:19:43.268Z,5.78
2023-03-17T05:24:48.029Z,6.78
2023-03-17T05:29:51.128Z,10.25
2023-03-17T05:34:54.565Z,10.05
2023-03-17T05:39:59.589Z,9.07
2023-03-17T05:50:08.171Z,7.55
2023-03-17T05:55:13.254Z,9.57
2023-03-17T06:05:20.226Z,27.20
2023-03-17T06:10:25.173Z,12.48
2023-03-17T06:15:29.249Z,8.57
2023-03-17T06:20:32.887Z,8.57
2023-03-17T06:25:37.676Z,8.43
2023-03-17T06:30:41.073Z,7.97
2023-03-17T06:35:44.303Z,11.45
2023-03-17T06:40:49.072Z,12.77
2023-03-17T06:45:52.946Z,15.63
2023-03-17T06:50:56.523Z,8.75
2023-03-17T06:56:01.217Z,7.57
2023-03-17T07:01:04.455Z,13.82
2023-03-17T07:06:08.879Z,16.55
2023-03-17T07:11:13.507Z,11.83
2023-03-17T07:16:19.818Z,17.55
2023-03-17T07:21:23.050Z,9.00
2023-03-17T07:26:27.816Z,12.10
2023-03-17T07:31:31.143Z,11.35
2023-03-17T07:36:34.453Z,8.35
2023-03-17T07:41:39.076Z,7.35
2023-03-17T07:46:42.784Z,10.07
2023-03-17T07:51:45.982Z,9.23
2023-03-17T07:56:50.651Z,11.50
2023-03-17T08:01:53.931Z,15.27
2023-03-17T08:06:57.408Z,12.75
2023-03-17T08:12:02.210Z,11.27
2023-03-17T08:17:05.496Z,11.82
2023-03-17T08:22:09.149Z,13.10
2023-03-17T08:27:14.313Z,9.48
2023-03-17T08:32:17.654Z,6.32
2023-03-17T08:37:20.867Z,8.55
2023-03-17T08:42:25.530Z,5.55
2023-03-17T08:47:28.783Z,7.72
2023-03-17T08:52:32.653Z,8.52
2023-03-17T08:57:37.513Z,7.13
2023-03-17T09:02:43.306Z,11.50
2023-03-17T09:07:46.809Z,8.93
2023-03-17T09:12:51.843Z,6.07
2023-03-17T09:17:55.254Z,10.07
2023-03-17T09:22:58.537Z,8.07
2023-03-17T09:28:03.891Z,8.97
2023-03-17T09:33:07.145Z,7.10
2023-03-17T09:38:11.414Z,6.53
2023-03-17T09:43:27.597Z,7.53
2023-03-17T09:48:42.055Z,8.43
2023-03-17T09:53:52.980Z,9.10
2023-03-17T09:59:01.339Z,9.73
2023-03-17T10:04:04.844Z,9.52
2023-03-17T10:09:19.941Z,12.80
2023-03-17T10:14:39.901Z,8.38
2023-03-17T10:19:47.435Z,9.60
2023-03-17T10:24:54.000Z,5.53
2023-03-17T10:29:58.617Z,11.25
2023-03-17T10:35:02.752Z,8.15
2023-03-17T10:40:10.605Z,11.90
2023-03-17T10:45:18.095Z,8.55
2023-03-17T10:50:24.875Z,11.18
2023-03-17T10:55:32.751Z,11.50
2023-03-17T11:00:39.321Z,11.13
2023-03-17T11:05:55.321Z,8.52
2023-03-17T11:10:58.548Z,11.48
2023-03-17T11:16:11.931Z,11.60
2023-03-17T11:21:21.712Z,12.50
2023-03-17T11:26:40.270Z,8.05
2023-03-17T11:31:53.148Z,8.90
2023-03-17T11:37:07.063Z,6.82
2023-03-17T11:42:17.335Z,13.80
2023-03-17T11:47:43.085Z,11.57
2023-03-17T11:53:00.682Z,10.50
2023-03-17T11:58:09.720Z,9.98
2023-03-17T12:03:22.380Z,15.68
2023-03-17T12:08:31.525Z,10.25
2023-03-17T12:13:40.372Z,9.43
2023-03-17T12:18:54.737Z,11.70
2023-03-17T12:24:03.353Z,10.73
2023-03-17T12:29:14.285Z,11.00
2023-03-17T12:34:24.364Z,9.57
2023-03-17T12:39:33.882Z,12.80
2023-03-17T12:45:01.303Z,9.10
2023-03-17T12:50:28.693Z,9.88
2023-03-17T12:55:36.335Z,12.70
2023-03-17T13:00:51.044Z,7.57
2023-03-17T13:06:01.027Z,8.43
2023-03-17T13:11:21.339Z,10.45
2023-03-17T13:16:29.947Z,7.28
2023-03-17T13:21:36.534Z,5.03
2023-03-17T13:26:55.445Z,7.10
2023-03-17T13:32:31.991Z,4.13
2023-03-17T13:37:46.436Z,7.07
2023-03-17T13:43:09.717Z,10.10
2023-03-17T13:48:36.485Z,6.35
2023-03-17T13:53:43.230Z,7.45
2023-03-17T13:59:06.553Z,9.10
2023-03-17T14:04:20.983Z,12.23
2023-03-17T14:09:38.769Z,11.55
2023-03-17T14:14:53.823Z,8.77
2023-03-17T14:20:08.323Z,9.43
2023-03-17T14:30:23.434Z,8.30
2023-03-17T14:35:30.829Z,9.30
2023-03-17T14:40:37.090Z,4.88
2023-03-17T14:45:53.714Z,5.55
2023-03-17T14:51:05.321Z,3.08
2023-03-17T14:56:10.637Z,4.93
2023-03-17T15:01:17.914Z,5.38
2023-03-17T15:06:26.167Z,6.40
2023-03-17T15:11:40.131Z,7.00
2023-03-17T15:16:46.993Z,5.47
2023-03-17T15:21:50.757Z,9.75
2023-03-17T15:27:02.837Z,6.88
2023-03-17T15:32:13.059Z,7.68
2023-03-17T15:37:18.535Z,9.07
2023-03-17T15:42:25.783Z,9.00
2023-03-17T15:47:30.781Z,5.07
2023-03-17T15:52:34.533Z,8.70
2023-03-17T15:57:39.084Z,3.70
2023-03-17T16:02:42.976Z,5.78
2023-03-17T16:07:47.041Z,4.53
2023-03-17T16:12:52.402Z,5.53
2023-03-17T16:17:58.483Z,6.50
2023-03-17T16:23:08.584Z,4.90
2023-03-17T16:28:18.274Z,4.78
2023-03-17T16:33:23.942Z,6.13
2023-03-17T16:38:30.046Z,5.15
2023-03-17T16:43:37.963Z,6.07
2023-03-17T16:48:41.162Z,7.80
2023-03-17T16:53:44.614Z,5.15
2023-03-17T16:58:49.739Z,8.43
2023-03-17T17:03:53.175Z,11.48
2023-03-17T17:08:56.346Z,6.03
2023-03-17T17:14:01.022Z,6.38
2023-03-17T17:19:05.048Z,5.50
2023-03-17T17:24:11.778Z,3.93
2023-03-17T17:29:16.358Z,4.55
2023-03-17T17:34:19.487Z,6.63
2023-03-17T17:39:22.595Z,4.72
2023-03-17T17:44:27.301Z,6.60
2023-03-17T17:49:30.481Z,6.93
2023-03-17T17:54:34.788Z,4.78
2023-03-17T17:59:39.429Z,5.30
2023-03-17T18:04:42.689Z,5.40
2023-03-17T18:09:45.909Z,6.30
2023-03-17T18:14:50.490Z,8.80
2023-03-17T18:19:54.049Z,5.20
2023-03-17T18:24:57.215Z,7.55
2023-03-17T18:30:02.036Z,11.65
2023-03-17T18:35:09.480Z,8.07
2023-03-17T18:40:17.271Z,6.90
2023-03-17T18:45:23.926Z,9.20
2023-03-17T18:50:27.561Z,10.15
2023-03-17T18:55:30.766Z,6.97
2023-03-17T19:00:35.568Z,7.75
2023-03-17T19:05:39.823Z,9.30
2023-03-17T19:10:44.308Z,20.37
2023-03-17T19:15:48.950Z,9.38
2023-03-17T19:20:52.746Z,9.48
2023-03-17T19:25:56.061Z,12.45
2023-03-17T19:31:00.825Z,33.50
2023-03-17T19:36:08.755Z,163.73
2023-03-17T19:41:12.174Z,66.47
2023-03-17T19:46:16.823Z,76.68
2023-03-17T19:51:20.155Z,41.28
2023-03-17T19:56:23.756Z,18.00
2023-03-17T20:01:29.418Z,13.35
2023-03-17T20:06:32.712Z,24.27
2023-03-17T20:11:36.283Z,17.58
2023-03-17T20:16:41.560Z,15.05
2023-03-17T20:21:45.022Z,76.93
2023-03-17T20:26:49.685Z,104.32
2023-03-17T20:31:54.340Z,44.03
2023-03-17T20:36:57.598Z,36.90
2023-03-17T20:42:01.780Z,19.88
2023-03-17T20:47:06.527Z,23.30
2023-03-17T20:52:13.679Z,16.98
2023-03-17T20:57:16.968Z,15.35
2023-03-17T21:02:23.452Z,17.48
2023-03-17T21:07:26.598Z,17.63
2023-03-17T21:12:29.942Z,12.38
2023-03-17T21:17:34.868Z,14.88
2023-03-17T21:27:42.197Z,14.93
2023-03-17T21:32:46.967Z,16.20
2023-03-17T21:37:50.776Z,13.32
2023-03-17T21:42:54.451Z,16.33
2023-03-17T21:47:59.076Z,17.52
2023-03-17T21:53:02.346Z,19.67
2023-03-17T21:58:05.588Z,13.27
2023-03-17T22:03:10.415Z,13.57
2023-03-17T22:08:13.731Z,15.23
2023-03-17T22:13:17.129Z,13.48
2023-03-17T22:18:22.174Z,14.02
2023-03-17T22:28:29.333Z,17.98
2023-03-17T22:33:34.476Z,14.70
2023-03-17T22:38:38.041Z,15.57
2023-03-17T22:43:41.925Z,13.85
2023-03-17T22:48:47.454Z,15.82
2023-03-17T22:53:51.443Z,12.57
2023-03-17T22:58:54.975Z,13.95
2023-03-17T23:03:59.738Z,17.00
2023-03-17T23:09:03.173Z,15.57
2023-03-17T23:14:06.448Z,17.92
2023-03-17T23:19:11.007Z,14.38
2023-03-17T23:24:14.457Z,18.10
2023-03-17T23:29:17.826Z,14.80
2023-03-17T23:34:22.634Z,20.98
2023-03-17T23:39:26.016Z,12.63
2023-03-17T23:44:29.284Z,12.75
2023-03-17T23:49:33.907Z,17.75
2023-03-17T23:54:38.920Z,15.55
